sensor_id;sensor_type;location;lat;lon;timestamp;temperature;humidity
2929;DHT22;1474;51.460;7.150;2023-05-14T00:01:59;13.20;73.70
2929;DHT22;1474;51.460;7.150;2023-05-14T00:04:25;13.10;74.10
2929;DHT22;1474;51.460;7.150;2023-05-14T00:06:50;13.10;73.90
2929;DHT22;1474;51.460;7.150;2023-05-14T00:09:16;13.10;73.70
2929;DHT22;1474;51.460;7.150;2023-05-14T00:11:42;13.00;73.50
2929;DHT22;1474;51.460;7.150;2023-05-14T00:14:08;13.00;74.00
2929;DHT22;1474;51.460;7.150;2023-05-14T00:16:33;13.00;73.60
2929;DHT22;1474;51.460;7.150;2023-05-14T00:18:59;12.90;73.40
2929;DHT22;1474;51.460;7.150;2023-05-14T00:21:25;12.90;74.10
2929;DHT22;1474;51.460;7.150;2023-05-14T00:23:51;12.90;74.30
2929;DHT22;1474;51.460;7.150;2023-05-14T00:26:16;12.80;74.20
2929;DHT22;1474;51.460;7.150;2023-05-14T00:28:42;12.90;74.40
2929;DHT22;1474;51.460;7.150;2023-05-14T00:31:08;12.80;74.10
2929;DHT22;1474;51.460;7.150;2023-05-14T00:33:33;12.80;74.10
2929;DHT22;1474;51.460;7.150;2023-05-14T00:35:59;12.70;74.00
2929;DHT22;1474;51.460;7.150;2023-05-14T00:38:25;12.70;74.30
2929;DHT22;1474;51.460;7.150;2023-05-14T00:40:52;12.70;74.20
2929;DHT22;1474;51.460;7.150;2023-05-14T00:43:19;12.70;74.20
2929;DHT22;1474;51.460;7.150;2023-05-14T00:45:48;12.60;74.50
2929;DHT22;1474;51.460;7.150;2023-05-14T00:48:15;12.50;74.60
2929;DHT22;1474;51.460;7.150;2023-05-14T00:50:42;12.50;74.30
2929;DHT22;1474;51.460;7.150;2023-05-14T00:53:08;12.50;74.20
2929;DHT22;1474;51.460;7.150;2023-05-14T00:55:40;12.50;74.10
2929;DHT22;1474;51.460;7.150;2023-05-14T00:58:09;12.50;74.50
2929;DHT22;1474;51.460;7.150;2023-05-14T01:00:38;12.50;74.60
2929;DHT22;1474;51.460;7.150;2023-05-14T01:03:05;12.50;75.00
2929;DHT22;1474;51.460;7.150;2023-05-14T01:12:07;12.30;74.70
2929;DHT22;1474;51.460;7.150;2023-05-14T01:17:28;12.20;75.00
2929;DHT22;1474;51.460;7.150;2023-05-14T01:19:57;12.20;75.00
2929;DHT22;1474;51.460;7.150;2023-05-14T01:22:24;12.20;75.10
2929;DHT22;1474;51.460;7.150;2023-05-14T01:24:50;12.20;75.10
2929;DHT22;1474;51.460;7.150;2023-05-14T01:27:28;12.10;74.30
2929;DHT22;1474;51.460;7.150;2023-05-14T01:33:00;12.10;75.20
2929;DHT22;1474;51.460;7.150;2023-05-14T01:35:29;12.00;75.20
2929;DHT22;1474;51.460;7.150;2023-05-14T01:37:57;12.00;74.70
2929;DHT22;1474;51.460;7.150;2023-05-14T01:40:25;12.00;75.10
2929;DHT22;1474;51.460;7.150;2023-05-14T01:42:53;11.90;75.30
2929;DHT22;1474;51.460;7.150;2023-05-14T01:45:20;11.90;75.30
2929;DHT22;1474;51.460;7.150;2023-05-14T01:47:46;11.80;75.40
2929;DHT22;1474;51.460;7.150;2023-05-14T01:50:12;11.80;75.50
2929;DHT22;1474;51.460;7.150;2023-05-14T01:52:38;11.80;75.50
2929;DHT22;1474;51.460;7.150;2023-05-14T01:55:04;11.70;75.80
2929;DHT22;1474;51.460;7.150;2023-05-14T01:57:30;11.60;76.30
2929;DHT22;1474;51.460;7.150;2023-05-14T01:59:56;11.50;76.80
2929;DHT22;1474;51.460;7.150;2023-05-14T02:02:22;11.50;77.20
2929;DHT22;1474;51.460;7.150;2023-05-14T02:04:47;11.40;77.60
2929;DHT22;1474;51.460;7.150;2023-05-14T02:07:14;11.40;78.10
2929;DHT22;1474;51.460;7.150;2023-05-14T02:09:40;11.30;78.50
2929;DHT22;1474;51.460;7.150;2023-05-14T02:12:07;11.20;79.40
2929;DHT22;1474;51.460;7.150;2023-05-14T02:14:33;11.20;78.80
2929;DHT22;1474;51.460;7.150;2023-05-14T02:16:59;11.20;79.10
2929;DHT22;1474;51.460;7.150;2023-05-14T02:19:25;11.20;78.90
2929;DHT22;1474;51.460;7.150;2023-05-14T02:21:51;11.20;78.90
2929;DHT22;1474;51.460;7.150;2023-05-14T02:24:16;11.20;78.70
2929;DHT22;1474;51.460;7.150;2023-05-14T02:26:42;11.20;78.60
2929;DHT22;1474;51.460;7.150;2023-05-14T02:29:08;11.20;78.70
2929;DHT22;1474;51.460;7.150;2023-05-14T02:31:33;11.10;78.20
2929;DHT22;1474;51.460;7.150;2023-05-14T02:34:03;11.10;78.20
2929;DHT22;1474;51.460;7.150;2023-05-14T02:36:31;11.10;77.60
2929;DHT22;1474;51.460;7.150;2023-05-14T02:38:58;11.20;77.20
2929;DHT22;1474;51.460;7.150;2023-05-14T02:41:25;11.10;76.70
2929;DHT22;1474;51.460;7.150;2023-05-14T02:43:52;11.10;76.80
2929;DHT22;1474;51.460;7.150;2023-05-14T02:46:18;11.10;77.00
2929;DHT22;1474;51.460;7.150;2023-05-14T02:48:44;11.10;77.00
2929;DHT22;1474;51.460;7.150;2023-05-14T02:51:10;11.10;76.70
2929;DHT22;1474;51.460;7.150;2023-05-14T02:53:36;11.10;76.50
2929;DHT22;1474;51.460;7.150;2023-05-14T02:56:02;11.00;77.00
2929;DHT22;1474;51.460;7.150;2023-05-14T02:58:28;11.00;77.10
2929;DHT22;1474;51.460;7.150;2023-05-14T03:00:55;11.00;76.90
2929;DHT22;1474;51.460;7.150;2023-05-14T03:03:21;10.90;76.90
2929;DHT22;1474;51.460;7.150;2023-05-14T03:05:47;10.90;77.20
2929;DHT22;1474;51.460;7.150;2023-05-14T03:08:13;10.90;77.20
2929;DHT22;1474;51.460;7.150;2023-05-14T03:10:39;10.90;77.30
2929;DHT22;1474;51.460;7.150;2023-05-14T03:13:04;10.90;77.10
2929;DHT22;1474;51.460;7.150;2023-05-14T03:15:30;10.90;77.10
2929;DHT22;1474;51.460;7.150;2023-05-14T03:17:56;10.90;76.80
2929;DHT22;1474;51.460;7.150;2023-05-14T03:20:23;10.90;76.60
2929;DHT22;1474;51.460;7.150;2023-05-14T03:22:50;10.80;77.10
2929;DHT22;1474;51.460;7.150;2023-05-14T03:25:16;10.80;76.50
2929;DHT22;1474;51.460;7.150;2023-05-14T03:27:42;10.80;76.30
2929;DHT22;1474;51.460;7.150;2023-05-14T03:30:08;10.80;76.80
2929;DHT22;1474;51.460;7.150;2023-05-14T03:32:35;10.80;76.90
2929;DHT22;1474;51.460;7.150;2023-05-14T03:35:01;10.70;76.50
2929;DHT22;1474;51.460;7.150;2023-05-14T03:37:27;10.80;76.80
2929;DHT22;1474;51.460;7.150;2023-05-14T03:39:53;10.70;77.00
2929;DHT22;1474;51.460;7.150;2023-05-14T03:42:19;10.70;77.70
2929;DHT22;1474;51.460;7.150;2023-05-14T03:44:45;10.70;77.20
2929;DHT22;1474;51.460;7.150;2023-05-14T03:47:10;10.70;77.50
2929;DHT22;1474;51.460;7.150;2023-05-14T03:49:36;10.70;77.40
2929;DHT22;1474;51.460;7.150;2023-05-14T03:52:02;10.70;77.60
2929;DHT22;1474;51.460;7.150;2023-05-14T03:54:28;10.70;77.50
2929;DHT22;1474;51.460;7.150;2023-05-14T03:56:54;10.70;77.00
2929;DHT22;1474;51.460;7.150;2023-05-14T03:59:19;10.70;77.40
2929;DHT22;1474;51.460;7.150;2023-05-14T04:01:45;10.70;77.20
2929;DHT22;1474;51.460;7.150;2023-05-14T04:04:11;10.70;77.30
2929;DHT22;1474;51.460;7.150;2023-05-14T04:06:37;10.70;77.20
2929;DHT22;1474;51.460;7.150;2023-05-14T04:09:03;10.70;77.10
2929;DHT22;1474;51.460;7.150;2023-05-14T04:11:28;10.70;77.40
2929;DHT22;1474;51.460;7.150;2023-05-14T04:13:54;10.60;77.10
2929;DHT22;1474;51.460;7.150;2023-05-14T04:16:20;10.60;77.30
2929;DHT22;1474;51.460;7.150;2023-05-14T04:18:46;10.60;77.20
2929;DHT22;1474;51.460;7.150;2023-05-14T04:21:12;10.60;77.50
2929;DHT22;1474;51.460;7.150;2023-05-14T04:23:37;10.70;77.80
2929;DHT22;1474;51.460;7.150;2023-05-14T04:26:03;10.70;77.80
2929;DHT22;1474;51.460;7.150;2023-05-14T04:28:29;10.70;77.00
2929;DHT22;1474;51.460;7.150;2023-05-14T04:30:55;10.70;77.00
2929;DHT22;1474;51.460;7.150;2023-05-14T04:33:21;10.80;77.20
2929;DHT22;1474;51.460;7.150;2023-05-14T04:35:47;10.70;77.50
2929;DHT22;1474;51.460;7.150;2023-05-14T04:38:13;10.80;77.80
2929;DHT22;1474;51.460;7.150;2023-05-14T04:40:39;10.80;77.80
2929;DHT22;1474;51.460;7.150;2023-05-14T04:43:06;10.80;77.40
2929;DHT22;1474;51.460;7.150;2023-05-14T04:45:32;10.90;77.10
2929;DHT22;1474;51.460;7.150;2023-05-14T04:47:58;10.90;77.30
2929;DHT22;1474;51.460;7.150;2023-05-14T04:50:24;10.90;77.10
2929;DHT22;1474;51.460;7.150;2023-05-14T04:52:50;11.00;77.80
2929;DHT22;1474;51.460;7.150;2023-05-14T04:55:16;11.00;77.40
2929;DHT22;1474;51.460;7.150;2023-05-14T04:57:42;11.10;77.00
2929;DHT22;1474;51.460;7.150;2023-05-14T05:00:08;11.20;77.70
2929;DHT22;1474;51.460;7.150;2023-05-14T05:02:35;11.30;77.70
2929;DHT22;1474;51.460;7.150;2023-05-14T05:05:04;11.30;78.30
2929;DHT22;1474;51.460;7.150;2023-05-14T05:07:30;11.40;77.90
2929;DHT22;1474;51.460;7.150;2023-05-14T05:09:56;11.50;78.60
2929;DHT22;1474;51.460;7.150;2023-05-14T05:12:21;11.60;78.40
2929;DHT22;1474;51.460;7.150;2023-05-14T05:14:47;11.70;78.30
2929;DHT22;1474;51.460;7.150;2023-05-14T05:17:13;11.80;78.10
2929;DHT22;1474;51.460;7.150;2023-05-14T05:19:39;11.90;77.90
2929;DHT22;1474;51.460;7.150;2023-05-14T05:22:05;12.00;76.40
2929;DHT22;1474;51.460;7.150;2023-05-14T05:24:31;12.10;76.10
2929;DHT22;1474;51.460;7.150;2023-05-14T05:26:56;12.10;76.10
2929;DHT22;1474;51.460;7.150;2023-05-14T05:29:23;12.20;76.10
2929;DHT22;1474;51.460;7.150;2023-05-14T05:31:49;12.20;76.00
2929;DHT22;1474;51.460;7.150;2023-05-14T05:34:15;12.40;77.70
2929;DHT22;1474;51.460;7.150;2023-05-14T05:36:40;12.50;77.40
2929;DHT22;1474;51.460;7.150;2023-05-14T05:39:06;12.80;77.20
2929;DHT22;1474;51.460;7.150;2023-05-14T05:41:32;13.00;76.90
2929;DHT22;1474;51.460;7.150;2023-05-14T05:43:57;13.40;76.40
2929;DHT22;1474;51.460;7.150;2023-05-14T05:46:23;13.80;75.20
2929;DHT22;1474;51.460;7.150;2023-05-14T05:48:49;14.10;73.40
2929;DHT22;1474;51.460;7.150;2023-05-14T05:51:15;14.50;72.30
2929;DHT22;1474;51.460;7.150;2023-05-14T05:53:40;14.80;71.20
2929;DHT22;1474;51.460;7.150;2023-05-14T05:56:06;15.00;70.00
2929;DHT22;1474;51.460;7.150;2023-05-14T05:58:32;15.30;69.20
2929;DHT22;1474;51.460;7.150;2023-05-14T06:00:58;15.50;69.40
2929;DHT22;1474;51.460;7.150;2023-05-14T06:03:24;15.70;67.80
2929;DHT22;1474;51.460;7.150;2023-05-14T06:05:51;15.90;67.30
2929;DHT22;1474;51.460;7.150;2023-05-14T06:08:17;16.10;66.90
2929;DHT22;1474;51.460;7.150;2023-05-14T06:10:43;16.30;65.90
2929;DHT22;1474;51.460;7.150;2023-05-14T06:13:09;16.40;65.30
2929;DHT22;1474;51.460;7.150;2023-05-14T06:15:35;16.60;65.30
2929;DHT22;1474;51.460;7.150;2023-05-14T06:18:01;16.80;64.40
2929;DHT22;1474;51.460;7.150;2023-05-14T06:20:27;16.90;63.30
2929;DHT22;1474;51.460;7.150;2023-05-14T06:22:53;17.00;63.70
2929;DHT22;1474;51.460;7.150;2023-05-14T06:25:18;17.10;63.00
2929;DHT22;1474;51.460;7.150;2023-05-14T06:27:44;17.20;63.50
2929;DHT22;1474;51.460;7.150;2023-05-14T06:30:10;17.10;62.30
2929;DHT22;1474;51.460;7.150;2023-05-14T06:32:40;17.20;63.60
2929;DHT22;1474;51.460;7.150;2023-05-14T06:35:06;17.20;63.90
2929;DHT22;1474;51.460;7.150;2023-05-14T06:37:32;17.20;63.30
2929;DHT22;1474;51.460;7.150;2023-05-14T06:39:59;17.20;63.60
2929;DHT22;1474;51.460;7.150;2023-05-14T06:42:25;17.10;62.10
2929;DHT22;1474;51.460;7.150;2023-05-14T06:44:51;17.10;63.70
2929;DHT22;1474;51.460;7.150;2023-05-14T06:47:16;17.10;64.80
2929;DHT22;1474;51.460;7.150;2023-05-14T06:49:42;17.00;62.20
2929;DHT22;1474;51.460;7.150;2023-05-14T06:52:08;17.00;64.70
2929;DHT22;1474;51.460;7.150;2023-05-14T06:54:34;17.10;63.30
2929;DHT22;1474;51.460;7.150;2023-05-14T06:57:00;17.10;62.60
2929;DHT22;1474;51.460;7.150;2023-05-14T06:59:26;17.10;63.60
2929;DHT22;1474;51.460;7.150;2023-05-14T07:01:51;17.20;63.70
2929;DHT22;1474;51.460;7.150;2023-05-14T07:04:17;17.20;64.00
2929;DHT22;1474;51.460;7.150;2023-05-14T07:06:43;17.30;64.50
2929;DHT22;1474;51.460;7.150;2023-05-14T07:09:09;17.50;64.70
2929;DHT22;1474;51.460;7.150;2023-05-14T07:11:35;17.60;62.50
2929;DHT22;1474;51.460;7.150;2023-05-14T07:14:00;17.70;62.60
2929;DHT22;1474;51.460;7.150;2023-05-14T07:16:26;17.90;61.60
2929;DHT22;1474;51.460;7.150;2023-05-14T07:18:52;18.00;63.00
2929;DHT22;1474;51.460;7.150;2023-05-14T07:21:18;18.00;59.00
2929;DHT22;1474;51.460;7.150;2023-05-14T07:23:43;18.10;60.60
2929;DHT22;1474;51.460;7.150;2023-05-14T07:26:09;18.20;59.60
2929;DHT22;1474;51.460;7.150;2023-05-14T07:28:35;18.30;59.20
2929;DHT22;1474;51.460;7.150;2023-05-14T07:31:01;18.40;58.20
2929;DHT22;1474;51.460;7.150;2023-05-14T07:33:29;18.40;59.20
2929;DHT22;1474;51.460;7.150;2023-05-14T07:35:55;18.60;59.40
2929;DHT22;1474;51.460;7.150;2023-05-14T07:38:21;18.70;56.30
2929;DHT22;1474;51.460;7.150;2023-05-14T07:40:47;18.70;55.10
2929;DHT22;1474;51.460;7.150;2023-05-14T07:43:13;18.70;55.00
2929;DHT22;1474;51.460;7.150;2023-05-14T07:45:38;18.70;55.80
2929;DHT22;1474;51.460;7.150;2023-05-14T07:48:04;18.90;56.10
2929;DHT22;1474;51.460;7.150;2023-05-14T07:50:30;19.10;55.80
2929;DHT22;1474;51.460;7.150;2023-05-14T07:52:57;19.20;54.00
2929;DHT22;1474;51.460;7.150;2023-05-14T07:55:22;19.40;52.40
2929;DHT22;1474;51.460;7.150;2023-05-14T07:57:48;19.50;55.90
2929;DHT22;1474;51.460;7.150;2023-05-14T08:00:14;19.60;52.30
2929;DHT22;1474;51.460;7.150;2023-05-14T08:02:41;19.80;50.70
2929;DHT22;1474;51.460;7.150;2023-05-14T08:05:08;19.90;50.10
2929;DHT22;1474;51.460;7.150;2023-05-14T08:07:34;19.90;48.30
2929;DHT22;1474;51.460;7.150;2023-05-14T08:10:00;19.90;48.40
2929;DHT22;1474;51.460;7.150;2023-05-14T08:12:26;19.90;51.30
2929;DHT22;1474;51.460;7.150;2023-05-14T08:14:53;20.10;48.60
2929;DHT22;1474;51.460;7.150;2023-05-14T08:17:18;20.30;49.90
2929;DHT22;1474;51.460;7.150;2023-05-14T08:19:44;20.40;48.70
2929;DHT22;1474;51.460;7.150;2023-05-14T08:22:11;20.60;48.70
2929;DHT22;1474;51.460;7.150;2023-05-14T08:24:37;20.60;45.90
2929;DHT22;1474;51.460;7.150;2023-05-14T08:27:04;20.60;45.50
2929;DHT22;1474;51.460;7.150;2023-05-14T08:29:30;20.70;46.90
2929;DHT22;1474;51.460;7.150;2023-05-14T08:31:56;20.90;46.20
2929;DHT22;1474;51.460;7.150;2023-05-14T08:34:22;21.10;46.40
2929;DHT22;1474;51.460;7.150;2023-05-14T08:36:48;21.10;42.90
2929;DHT22;1474;51.460;7.150;2023-05-14T08:39:13;21.30;46.30
2929;DHT22;1474;51.460;7.150;2023-05-14T08:41:39;21.50;42.20
2929;DHT22;1474;51.460;7.150;2023-05-14T08:44:30;21.60;44.00
2929;DHT22;1474;51.460;7.150;2023-05-14T08:46:59;21.70;41.40
2929;DHT22;1474;51.460;7.150;2023-05-14T08:51:58;21.80;43.30
2929;DHT22;1474;51.460;7.150;2023-05-14T08:54:25;21.60;41.80
2929;DHT22;1474;51.460;7.150;2023-05-14T08:56:51;21.60;42.20
2929;DHT22;1474;51.460;7.150;2023-05-14T08:59:18;21.60;42.10
2929;DHT22;1474;51.460;7.150;2023-05-14T09:01:47;21.60;41.60
2929;DHT22;1474;51.460;7.150;2023-05-14T09:04:19;21.80;41.40
2929;DHT22;1474;51.460;7.150;2023-05-14T09:06:53;21.80;42.10
2929;DHT22;1474;51.460;7.150;2023-05-14T09:09:20;21.80;40.70
2929;DHT22;1474;51.460;7.150;2023-05-14T09:11:51;22.00;38.70
2929;DHT22;1474;51.460;7.150;2023-05-14T09:14:18;22.00;39.60
2929;DHT22;1474;51.460;7.150;2023-05-14T09:16:46;22.10;40.10
2929;DHT22;1474;51.460;7.150;2023-05-14T09:19:14;22.20;38.10
2929;DHT22;1474;51.460;7.150;2023-05-14T09:21:43;22.20;38.80
2929;DHT22;1474;51.460;7.150;2023-05-14T09:24:20;22.30;38.80
2929;DHT22;1474;51.460;7.150;2023-05-14T09:26:57;22.10;38.50
2929;DHT22;1474;51.460;7.150;2023-05-14T09:29:28;21.80;39.40
2929;DHT22;1474;51.460;7.150;2023-05-14T09:31:55;21.70;40.00
2929;DHT22;1474;51.460;7.150;2023-05-14T09:34:23;21.70;41.20
2929;DHT22;1474;51.460;7.150;2023-05-14T09:37:05;21.80;39.30
2929;DHT22;1474;51.460;7.150;2023-05-14T09:39:33;21.80;38.70
2929;DHT22;1474;51.460;7.150;2023-05-14T09:42:00;21.70;40.40
2929;DHT22;1474;51.460;7.150;2023-05-14T09:44:26;21.70;39.20
2929;DHT22;1474;51.460;7.150;2023-05-14T09:46:53;21.90;44.20
2929;DHT22;1474;51.460;7.150;2023-05-14T09:49:19;22.10;43.50
2929;DHT22;1474;51.460;7.150;2023-05-14T09:51:45;22.40;42.20
2929;DHT22;1474;51.460;7.150;2023-05-14T09:54:12;22.70;40.50
2929;DHT22;1474;51.460;7.150;2023-05-14T09:56:38;22.80;38.50
2929;DHT22;1474;51.460;7.150;2023-05-14T09:59:04;22.80;39.80
2929;DHT22;1474;51.460;7.150;2023-05-14T10:01:30;22.70;39.40
2929;DHT22;1474;51.460;7.150;2023-05-14T10:04:02;22.70;41.90
2929;DHT22;1474;51.460;7.150;2023-05-14T10:06:34;22.80;40.00
2929;DHT22;1474;51.460;7.150;2023-05-14T10:09:04;22.80;44.80
2929;DHT22;1474;51.460;7.150;2023-05-14T10:11:37;23.10;41.80
2929;DHT22;1474;51.460;7.150;2023-05-14T10:14:19;23.20;41.70
2929;DHT22;1474;51.460;7.150;2023-05-14T10:16:50;23.40;42.60
2929;DHT22;1474;51.460;7.150;2023-05-14T10:19:19;23.50;39.40
2929;DHT22;1474;51.460;7.150;2023-05-14T10:21:48;23.60;38.70
2929;DHT22;1474;51.460;7.150;2023-05-14T10:24:20;23.70;40.40
2929;DHT22;1474;51.460;7.150;2023-05-14T10:26:46;23.80;38.80
2929;DHT22;1474;51.460;7.150;2023-05-14T10:29:13;23.80;39.00
2929;DHT22;1474;51.460;7.150;2023-05-14T10:31:52;23.90;41.90
2929;DHT22;1474;51.460;7.150;2023-05-14T10:37:14;24.60;43.40
2929;DHT22;1474;51.460;7.150;2023-05-14T10:39:52;24.80;39.20
2929;DHT22;1474;51.460;7.150;2023-05-14T10:42:27;24.90;38.50
2929;DHT22;1474;51.460;7.150;2023-05-14T10:45:03;24.60;37.50
2929;DHT22;1474;51.460;7.150;2023-05-14T10:47:35;24.30;39.90
2929;DHT22;1474;51.460;7.150;2023-05-14T10:50:10;24.40;38.20
2929;DHT22;1474;51.460;7.150;2023-05-14T10:52:40;24.40;36.80
2929;DHT22;1474;51.460;7.150;2023-05-14T10:55:08;24.40;37.80
2929;DHT22;1474;51.460;7.150;2023-05-14T10:57:38;24.40;37.80
2929;DHT22;1474;51.460;7.150;2023-05-14T11:00:05;24.40;39.70
2929;DHT22;1474;51.460;7.150;2023-05-14T11:02:43;24.70;39.90
2929;DHT22;1474;51.460;7.150;2023-05-14T11:05:12;25.00;38.30
2929;DHT22;1474;51.460;7.150;2023-05-14T11:07:47;25.20;37.10
2929;DHT22;1474;51.460;7.150;2023-05-14T11:10:19;25.00;36.80
2929;DHT22;1474;51.460;7.150;2023-05-14T11:12:47;24.90;37.30
2929;DHT22;1474;51.460;7.150;2023-05-14T11:15:16;24.80;37.60
2929;DHT22;1474;51.460;7.150;2023-05-14T11:17:44;24.60;37.50
2929;DHT22;1474;51.460;7.150;2023-05-14T11:20:12;24.70;36.60
2929;DHT22;1474;51.460;7.150;2023-05-14T11:22:40;24.70;37.00
2929;DHT22;1474;51.460;7.150;2023-05-14T11:25:08;24.60;38.60
2929;DHT22;1474;51.460;7.150;2023-05-14T11:27:36;24.80;38.00
2929;DHT22;1474;51.460;7.150;2023-05-14T11:30:03;25.00;36.50
2929;DHT22;1474;51.460;7.150;2023-05-14T11:32:34;25.00;35.50
2929;DHT22;1474;51.460;7.150;2023-05-14T11:34:59;24.80;38.30
2929;DHT22;1474;51.460;7.150;2023-05-14T11:37:25;24.60;34.20
2929;DHT22;1474;51.460;7.150;2023-05-14T11:39:57;24.20;37.70
2929;DHT22;1474;51.460;7.150;2023-05-14T11:42:24;24.30;38.20
2929;DHT22;1474;51.460;7.150;2023-05-14T11:44:51;24.40;37.70
2929;DHT22;1474;51.460;7.150;2023-05-14T11:47:20;24.60;38.00
2929;DHT22;1474;51.460;7.150;2023-05-14T11:49:47;24.60;34.30
2929;DHT22;1474;51.460;7.150;2023-05-14T11:52:15;24.40;35.80
2929;DHT22;1474;51.460;7.150;2023-05-14T11:54:43;24.30;33.50
2929;DHT22;1474;51.460;7.150;2023-05-14T11:57:22;24.30;35.40
2929;DHT22;1474;51.460;7.150;2023-05-14T11:59:53;24.10;37.90
2929;DHT22;1474;51.460;7.150;2023-05-14T12:02:25;24.20;36.10
2929;DHT22;1474;51.460;7.150;2023-05-14T12:04:54;24.30;35.40
2929;DHT22;1474;51.460;7.150;2023-05-14T12:07:20;24.30;36.60
2929;DHT22;1474;51.460;7.150;2023-05-14T12:09:47;24.40;36.50
2929;DHT22;1474;51.460;7.150;2023-05-14T12:12:18;24.40;34.90
2929;DHT22;1474;51.460;7.150;2023-05-14T12:14:46;24.30;36.60
2929;DHT22;1474;51.460;7.150;2023-05-14T12:17:18;24.40;38.40
2929;DHT22;1474;51.460;7.150;2023-05-14T12:19:47;24.70;36.00
2929;DHT22;1474;51.460;7.150;2023-05-14T12:22:22;24.70;34.90
2929;DHT22;1474;51.460;7.150;2023-05-14T12:24:58;24.80;34.30
2929;DHT22;1474;51.460;7.150;2023-05-14T12:27:26;25.00;34.50
2929;DHT22;1474;51.460;7.150;2023-05-14T12:30:03;25.00;34.10
2929;DHT22;1474;51.460;7.150;2023-05-14T12:32:31;24.70;34.30
2929;DHT22;1474;51.460;7.150;2023-05-14T12:34:58;24.40;34.30
2929;DHT22;1474;51.460;7.150;2023-05-14T12:37:25;24.30;35.10
2929;DHT22;1474;51.460;7.150;2023-05-14T12:39:52;24.30;36.80
2929;DHT22;1474;51.460;7.150;2023-05-14T12:42:17;24.20;39.10
2929;DHT22;1474;51.460;7.150;2023-05-14T12:44:43;24.30;36.00
2929;DHT22;1474;51.460;7.150;2023-05-14T12:47:09;24.20;38.80
2929;DHT22;1474;51.460;7.150;2023-05-14T12:49:36;24.20;34.70
2929;DHT22;1474;51.460;7.150;2023-05-14T12:52:02;24.30;35.80
2929;DHT22;1474;51.460;7.150;2023-05-14T12:54:28;24.40;36.20
2929;DHT22;1474;51.460;7.150;2023-05-14T12:56:56;24.60;35.70
2929;DHT22;1474;51.460;7.150;2023-05-14T12:59:22;24.30;34.50
2929;DHT22;1474;51.460;7.150;2023-05-14T13:01:48;24.00;35.00
2929;DHT22;1474;51.460;7.150;2023-05-14T13:04:14;24.20;37.10
2929;DHT22;1474;51.460;7.150;2023-05-14T13:06:40;24.10;38.90
2929;DHT22;1474;51.460;7.150;2023-05-14T13:09:06;24.20;37.90
2929;DHT22;1474;51.460;7.150;2023-05-14T13:11:33;24.10;35.30
2929;DHT22;1474;51.460;7.150;2023-05-14T13:13:59;24.20;35.00
2929;DHT22;1474;51.460;7.150;2023-05-14T13:16:29;24.10;35.70
2929;DHT22;1474;51.460;7.150;2023-05-14T13:18:55;24.20;38.40
2929;DHT22;1474;51.460;7.150;2023-05-14T13:21:21;24.40;36.70
2929;DHT22;1474;51.460;7.150;2023-05-14T13:23:47;24.50;37.10
2929;DHT22;1474;51.460;7.150;2023-05-14T13:26:14;24.40;35.80
2929;DHT22;1474;51.460;7.150;2023-05-14T13:28:40;24.60;37.20
2929;DHT22;1474;51.460;7.150;2023-05-14T13:31:08;24.80;35.70
2929;DHT22;1474;51.460;7.150;2023-05-14T13:33:36;24.80;35.20
2929;DHT22;1474;51.460;7.150;2023-05-14T13:36:03;24.40;34.00
2929;DHT22;1474;51.460;7.150;2023-05-14T13:38:29;23.90;35.90
2929;DHT22;1474;51.460;7.150;2023-05-14T13:40:56;23.70;36.40
2929;DHT22;1474;51.460;7.150;2023-05-14T13:43:26;23.70;36.40
2929;DHT22;1474;51.460;7.150;2023-05-14T13:45:59;23.50;37.30
2929;DHT22;1474;51.460;7.150;2023-05-14T13:48:25;23.40;35.30
2929;DHT22;1474;51.460;7.150;2023-05-14T13:50:52;23.40;35.70
2929;DHT22;1474;51.460;7.150;2023-05-14T13:53:19;23.60;35.20
2929;DHT22;1474;51.460;7.150;2023-05-14T13:55:46;23.70;37.60
2929;DHT22;1474;51.460;7.150;2023-05-14T13:58:12;23.90;35.30
2929;DHT22;1474;51.460;7.150;2023-05-14T14:00:38;24.00;36.00
2929;DHT22;1474;51.460;7.150;2023-05-14T14:03:04;24.20;37.30
2929;DHT22;1474;51.460;7.150;2023-05-14T14:05:32;24.40;35.30
2929;DHT22;1474;51.460;7.150;2023-05-14T14:07:58;24.30;35.20
2929;DHT22;1474;51.460;7.150;2023-05-14T14:10:24;24.00;36.60
2929;DHT22;1474;51.460;7.150;2023-05-14T14:12:50;23.80;37.10
2929;DHT22;1474;51.460;7.150;2023-05-14T14:15:16;23.80;37.50
2929;DHT22;1474;51.460;7.150;2023-05-14T14:17:42;23.90;33.70
2929;DHT22;1474;51.460;7.150;2023-05-14T14:20:08;23.80;34.70
2929;DHT22;1474;51.460;7.150;2023-05-14T14:22:35;23.80;35.60
2929;DHT22;1474;51.460;7.150;2023-05-14T14:25:01;24.00;35.00
2929;DHT22;1474;51.460;7.150;2023-05-14T14:27:28;24.20;36.10
2929;DHT22;1474;51.460;7.150;2023-05-14T14:29:59;24.30;34.30
2929;DHT22;1474;51.460;7.150;2023-05-14T14:32:25;24.40;36.70
2929;DHT22;1474;51.460;7.150;2023-05-14T14:34:50;24.60;34.40
2929;DHT22;1474;51.460;7.150;2023-05-14T14:37:16;24.40;32.90
2929;DHT22;1474;51.460;7.150;2023-05-14T14:39:45;24.40;32.70
2929;DHT22;1474;51.460;7.150;2023-05-14T14:42:10;24.30;35.10
2929;DHT22;1474;51.460;7.150;2023-05-14T14:44:36;24.40;33.90
2929;DHT22;1474;51.460;7.150;2023-05-14T14:47:02;24.30;35.90
2929;DHT22;1474;51.460;7.150;2023-05-14T14:49:28;24.40;37.20
2929;DHT22;1474;51.460;7.150;2023-05-14T14:51:55;24.60;35.40
2929;DHT22;1474;51.460;7.150;2023-05-14T14:54:20;24.80;34.00
2929;DHT22;1474;51.460;7.150;2023-05-14T14:56:46;24.80;34.50
2929;DHT22;1474;51.460;7.150;2023-05-14T14:59:13;24.90;35.90
2929;DHT22;1474;51.460;7.150;2023-05-14T15:01:39;24.90;37.40
2929;DHT22;1474;51.460;7.150;2023-05-14T15:04:05;24.70;35.40
2929;DHT22;1474;51.460;7.150;2023-05-14T15:06:30;24.50;36.90
2929;DHT22;1474;51.460;7.150;2023-05-14T15:08:56;24.30;36.40
2929;DHT22;1474;51.460;7.150;2023-05-14T15:11:22;24.40;36.50
2929;DHT22;1474;51.460;7.150;2023-05-14T15:13:47;24.40;37.80
2929;DHT22;1474;51.460;7.150;2023-05-14T15:16:13;24.50;36.50
2929;DHT22;1474;51.460;7.150;2023-05-14T15:18:39;24.60;36.20
2929;DHT22;1474;51.460;7.150;2023-05-14T15:21:05;24.60;37.90
2929;DHT22;1474;51.460;7.150;2023-05-14T15:23:31;24.60;38.30
2929;DHT22;1474;51.460;7.150;2023-05-14T15:25:57;24.70;36.20
2929;DHT22;1474;51.460;7.150;2023-05-14T15:28:22;24.70;37.10
2929;DHT22;1474;51.460;7.150;2023-05-14T15:30:48;24.40;33.80
2929;DHT22;1474;51.460;7.150;2023-05-14T15:33:14;24.20;34.90
2929;DHT22;1474;51.460;7.150;2023-05-14T15:35:44;24.20;37.70
2929;DHT22;1474;51.460;7.150;2023-05-14T15:38:10;24.20;38.70
2929;DHT22;1474;51.460;7.150;2023-05-14T15:40:35;24.20;38.10
2929;DHT22;1474;51.460;7.150;2023-05-14T15:43:01;24.10;36.50
2929;DHT22;1474;51.460;7.150;2023-05-14T15:45:27;24.00;36.70
2929;DHT22;1474;51.460;7.150;2023-05-14T15:47:53;23.80;37.20
2929;DHT22;1474;51.460;7.150;2023-05-14T15:50:19;23.70;38.50
2929;DHT22;1474;51.460;7.150;2023-05-14T15:52:45;23.80;38.50
2929;DHT22;1474;51.460;7.150;2023-05-14T15:55:12;23.60;39.20
2929;DHT22;1474;51.460;7.150;2023-05-14T15:57:37;23.50;38.30
2929;DHT22;1474;51.460;7.150;2023-05-14T16:00:03;23.30;39.40
2929;DHT22;1474;51.460;7.150;2023-05-14T16:02:35;23.10;39.40
2929;DHT22;1474;51.460;7.150;2023-05-14T16:05:02;22.90;39.40
2929;DHT22;1474;51.460;7.150;2023-05-14T16:07:28;22.80;40.80
2929;DHT22;1474;51.460;7.150;2023-05-14T16:09:53;22.90;40.20
2929;DHT22;1474;51.460;7.150;2023-05-14T16:12:19;22.80;39.50
2929;DHT22;1474;51.460;7.150;2023-05-14T16:14:45;22.80;40.10
2929;DHT22;1474;51.460;7.150;2023-05-14T16:17:11;22.90;40.00
2929;DHT22;1474;51.460;7.150;2023-05-14T16:19:37;23.00;40.00